createdAt,value
2022-12-04T00:01:31.018Z,31.03
2022-12-04T00:04:02.630Z,29.93
2022-12-04T00:06:33.842Z,31.93
2022-12-04T00:09:05.981Z,31.30
2022-12-04T00:11:36.311Z,30.50
2022-12-04T00:14:07.259Z,30.47
2022-12-04T00:16:36.600Z,30.63
2022-12-04T00:19:07.514Z,31.40
2022-12-04T00:21:36.853Z,31.07
2022-12-04T00:24:06.677Z,30.50
2022-12-04T00:26:34.789Z,29.37
2022-12-04T00:29:03.718Z,29.63
2022-12-04T00:31:34.246Z,28.33
2022-12-04T00:34:07.589Z,30.53
2022-12-04T00:36:38.502Z,27.63
2022-12-04T00:39:10.637Z,27.43
2022-12-04T00:41:39.965Z,28.97
2022-12-04T00:44:08.700Z,27.73
2022-12-04T00:46:37.626Z,28.63
2022-12-04T00:49:05.872Z,28.50
2022-12-04T00:51:33.827Z,29.50
2022-12-04T00:54:04.631Z,28.30
2022-12-04T00:56:33.665Z,28.83
2022-12-04T00:59:02.458Z,29.93
2022-12-04T01:01:31.552Z,29.23
2022-12-04T01:03:59.769Z,31.90
2022-12-04T01:06:30.618Z,32.73
2022-12-04T01:09:00.698Z,30.57
2022-12-04T01:11:31.605Z,30.07
2022-12-04T01:14:00.469Z,31.07
2022-12-04T01:16:31.676Z,30.83
2022-12-04T01:19:00.484Z,30.27
2022-12-04T01:21:28.764Z,30.80
2022-12-04T01:23:56.872Z,29.50
2022-12-04T01:26:25.691Z,29.57
2022-12-04T01:28:55.316Z,29.93
2022-12-04T01:31:23.880Z,30.77
2022-12-04T01:33:55.695Z,31.73
2022-12-04T01:36:26.480Z,30.97
2022-12-04T01:38:55.366Z,31.00
2022-12-04T01:41:26.604Z,30.13
2022-12-04T01:44:17.686Z,30.60
2022-12-04T01:46:47.011Z,29.90
2022-12-04T01:49:19.907Z,28.80
2022-12-04T01:51:51.526Z,28.03
2022-12-04T01:54:28.596Z,29.00
2022-12-04T01:57:03.375Z,27.53
2022-12-04T01:59:37.870Z,27.10
2022-12-04T02:02:09.815Z,28.77
2022-12-04T02:04:43.415Z,28.30
2022-12-04T02:07:14.531Z,28.97
2022-12-04T02:09:45.540Z,26.17
2022-12-04T02:12:25.665Z,28.03
2022-12-04T02:15:05.655Z,28.33
2022-12-04T02:17:41.176Z,26.43
2022-12-04T02:20:27.387Z,26.27
2022-12-04T02:23:08.625Z,25.90
2022-12-04T02:25:44.460Z,25.10
2022-12-04T02:28:22.927Z,25.30
2022-12-04T02:30:54.640Z,24.07
2022-12-04T02:33:26.662Z,25.23
2022-12-04T02:36:04.519Z,23.43
2022-12-04T02:38:38.254Z,22.30
2022-12-04T02:41:12.619Z,22.90
2022-12-04T02:43:45.850Z,21.60
2022-12-04T02:46:20.093Z,23.03
2022-12-04T02:48:53.625Z,23.97
2022-12-04T02:51:24.509Z,23.70
2022-12-04T02:53:56.683Z,23.67
2022-12-04T02:56:28.330Z,23.20
2022-12-04T02:59:02.204Z,24.33
2022-12-04T03:01:35.279Z,24.63
2022-12-04T03:04:13.076Z,24.30
2022-12-04T03:06:44.426Z,24.50
2022-12-04T03:09:17.388Z,25.20
2022-12-04T03:11:50.648Z,23.70
2022-12-04T03:14:23.412Z,23.97
2022-12-04T03:16:54.539Z,23.67
2022-12-04T03:19:30.160Z,24.37
2022-12-04T03:22:00.999Z,25.57
2022-12-04T03:24:38.200Z,24.47
2022-12-04T03:27:11.167Z,22.73
2022-12-04T03:29:46.344Z,23.60
2022-12-04T03:32:18.640Z,23.60
2022-12-04T03:34:55.488Z,22.90
2022-12-04T03:37:33.709Z,23.30
2022-12-04T03:40:07.502Z,21.47
2022-12-04T03:42:42.675Z,21.53
2022-12-04T03:45:20.577Z,22.07
2022-12-04T03:47:55.170Z,22.60
2022-12-04T03:50:30.684Z,22.40
2022-12-04T03:53:06.653Z,23.60
2022-12-04T03:55:41.130Z,24.10
2022-12-04T03:58:17.698Z,23.53
2022-12-04T04:00:54.155Z,23.63
2022-12-04T04:03:30.231Z,25.23
2022-12-04T04:06:04.689Z,22.93
2022-12-04T04:08:38.594Z,25.20
2022-12-04T04:11:13.865Z,25.17
2022-12-04T04:14:06.699Z,25.03
2022-12-04T04:16:57.360Z,23.67
2022-12-04T04:19:49.588Z,24.33
2022-12-04T04:22:38.606Z,25.87
2022-12-04T04:25:11.737Z,26.17
2022-12-04T04:27:43.487Z,25.13
2022-12-04T04:30:11.822Z,26.07
2022-12-04T04:32:50.241Z,25.63
2022-12-04T04:35:23.678Z,24.83
2022-12-04T04:38:02.821Z,25.20
2022-12-04T04:40:38.260Z,25.90
2022-12-04T04:43:12.739Z,24.07
2022-12-04T04:45:46.700Z,23.87
2022-12-04T04:48:21.379Z,22.67
2022-12-04T04:50:51.685Z,24.83
2022-12-04T04:53:23.720Z,23.97
2022-12-04T04:55:51.958Z,25.40
2022-12-04T04:58:21.771Z,25.50
2022-12-04T05:01:01.564Z,22.77
2022-12-04T05:03:32.137Z,23.73
2022-12-04T05:06:00.164Z,23.23
2022-12-04T05:08:28.744Z,23.27
2022-12-04T05:10:57.014Z,22.53
2022-12-04T05:13:25.761Z,22.93
2022-12-04T05:16:00.668Z,26.00
2022-12-04T05:18:31.072Z,24.87
2022-12-04T05:20:59.722Z,23.77
2022-12-04T05:23:28.688Z,21.47
2022-12-04T05:26:00.984Z,24.13
2022-12-04T05:28:29.699Z,21.70
2022-12-04T05:30:58.701Z,22.77
2022-12-04T05:33:26.852Z,21.87
2022-12-04T05:36:00.649Z,23.40
2022-12-04T05:38:29.137Z,23.00
2022-12-04T05:40:59.171Z,22.83
2022-12-04T05:43:33.409Z,22.57
2022-12-04T05:46:02.713Z,24.13
2022-12-04T05:48:30.812Z,22.53
2022-12-04T05:51:00.096Z,23.40
2022-12-04T05:53:31.502Z,23.33
2022-12-04T05:56:02.643Z,23.27
2022-12-04T05:58:31.018Z,24.43
2022-12-04T06:00:59.632Z,25.43
2022-12-04T06:03:27.776Z,24.07
2022-12-04T06:05:55.755Z,23.80
2022-12-04T06:08:25.729Z,23.47
2022-12-04T06:10:56.683Z,24.37
2022-12-04T06:13:25.790Z,23.80
2022-12-04T06:15:54.219Z,25.00
2022-12-04T06:18:22.687Z,25.10
2022-12-04T06:20:53.255Z,23.93
2022-12-04T06:23:21.693Z,23.20
2022-12-04T06:25:51.763Z,22.80
2022-12-04T06:28:19.808Z,23.13
2022-12-04T06:30:47.857Z,21.80
2022-12-04T06:33:16.611Z,23.50
2022-12-04T06:35:44.809Z,22.17
2022-12-04T06:38:16.153Z,21.90
2022-12-04T06:40:48.048Z,21.33
2022-12-04T06:43:17.611Z,21.57
2022-12-04T06:45:45.748Z,21.57
2022-12-04T06:48:14.751Z,23.73
2022-12-04T06:50:42.718Z,21.80
2022-12-04T06:53:11.697Z,20.27
2022-12-04T06:55:39.633Z,20.93
2022-12-04T06:58:07.781Z,21.77
2022-12-04T07:00:37.718Z,21.47
2022-12-04T07:03:05.720Z,20.90
2022-12-04T07:05:34.715Z,21.43
2022-12-04T07:08:02.830Z,20.63
2022-12-04T07:10:31.452Z,21.10
2022-12-04T07:12:59.556Z,22.33
2022-12-04T07:15:27.768Z,21.47
2022-12-04T07:17:58.272Z,22.63
2022-12-04T07:20:26.383Z,21.97
2022-12-04T07:22:54.359Z,21.83
2022-12-04T07:25:25.160Z,21.63
2022-12-04T07:27:53.195Z,21.20
2022-12-04T07:30:21.482Z,22.03
2022-12-04T07:32:49.606Z,20.97
2022-12-04T07:35:22.744Z,21.57
2022-12-04T07:37:50.716Z,22.30
2022-12-04T07:40:18.961Z,22.20
2022-12-04T07:42:48.348Z,23.03
2022-12-04T07:45:16.608Z,21.90
2022-12-04T07:47:44.692Z,23.33
2022-12-04T07:50:12.806Z,22.33
2022-12-04T07:52:46.349Z,23.80
2022-12-04T07:55:21.637Z,22.40
2022-12-04T07:57:55.059Z,21.90
2022-12-04T08:00:23.781Z,22.30
2022-12-04T08:02:52.316Z,22.80
2022-12-04T08:05:20.665Z,23.77
2022-12-04T08:07:50.037Z,24.13
2022-12-04T08:10:18.428Z,24.13
2022-12-04T08:12:46.402Z,23.80
2022-12-04T08:15:17.407Z,24.40
2022-12-04T08:17:45.756Z,22.67
2022-12-04T08:20:13.894Z,24.20
2022-12-04T08:22:42.106Z,24.93
2022-12-04T08:25:11.594Z,23.00
2022-12-04T08:27:42.024Z,24.37
2022-12-04T08:30:15.658Z,23.67
2022-12-04T08:32:43.792Z,23.87
2022-12-04T08:35:12.123Z,23.70
2022-12-04T08:37:40.313Z,23.63
2022-12-04T08:40:09.734Z,23.00
2022-12-04T08:42:41.809Z,23.20
2022-12-04T08:45:11.310Z,24.90
2022-12-04T08:47:39.482Z,23.10
2022-12-04T08:50:08.659Z,22.07
2022-12-04T08:52:36.840Z,21.63
2022-12-04T08:55:05.136Z,24.50
2022-12-04T08:57:35.469Z,23.17
2022-12-04T09:00:05.788Z,21.83
2022-12-04T09:02:34.168Z,21.60
2022-12-04T09:05:02.138Z,21.97
2022-12-04T09:07:30.551Z,21.40
2022-12-04T09:09:58.918Z,21.70
2022-12-04T09:12:29.137Z,21.97
2022-12-04T09:14:57.245Z,20.83
2022-12-04T09:17:29.190Z,21.73
2022-12-04T09:20:00.948Z,21.20
2022-12-04T09:22:51.302Z,20.30
2022-12-04T09:25:20.480Z,20.90
2022-12-04T09:27:48.459Z,20.90
2022-12-04T09:30:16.648Z,20.20
2022-12-04T09:32:45.959Z,21.43
2022-12-04T09:35:14.200Z,21.17
2022-12-04T09:37:42.148Z,21.40
2022-12-04T09:40:22.663Z,21.97
2022-12-04T09:42:58.293Z,20.67
2022-12-04T09:45:34.447Z,20.67
2022-12-04T09:48:03.919Z,19.87
2022-12-04T09:50:38.251Z,19.07
2022-12-04T09:53:12.710Z,20.97
2022-12-04T09:55:52.687Z,19.53
2022-12-04T09:58:26.273Z,19.30
2022-12-04T10:00:55.843Z,20.47
2022-12-04T10:03:31.031Z,19.77
2022-12-04T10:06:08.509Z,20.83
2022-12-04T10:08:43.482Z,21.73
2022-12-04T10:11:16.705Z,19.17
2022-12-04T10:14:04.140Z,17.87
2022-12-04T10:16:46.533Z,18.93
2022-12-04T10:19:23.565Z,18.20
2022-12-04T10:22:00.070Z,19.33
2022-12-04T10:24:40.428Z,19.30
2022-12-04T10:27:15.813Z,19.00
2022-12-04T10:29:48.465Z,19.03
2022-12-04T10:32:21.395Z,20.07
2022-12-04T10:34:54.722Z,18.43
2022-12-04T10:37:23.889Z,18.33
2022-12-04T10:39:57.999Z,18.93
2022-12-04T10:42:33.839Z,18.10
2022-12-04T10:45:02.852Z,18.63
2022-12-04T10:47:31.745Z,18.67
2022-12-04T10:50:05.481Z,19.03
2022-12-04T10:52:33.541Z,18.37
2022-12-04T10:55:05.613Z,18.60
2022-12-04T10:57:38.925Z,19.67
2022-12-04T11:00:26.944Z,19.90
2022-12-04T11:03:01.303Z,18.47
2022-12-04T11:05:34.807Z,19.90
2022-12-04T11:08:05.909Z,19.13
2022-12-04T11:10:39.568Z,22.40
2022-12-04T11:13:16.235Z,19.17
2022-12-04T11:15:48.163Z,20.37
2022-12-04T11:18:20.129Z,19.33
2022-12-04T11:20:57.805Z,20.27
2022-12-04T11:23:26.856Z,20.10
2022-12-04T11:26:03.731Z,19.17
2022-12-04T11:28:41.687Z,20.00
2022-12-04T11:31:17.721Z,20.53
2022-12-04T11:33:48.192Z,20.83
2022-12-04T11:36:23.426Z,20.80
2022-12-04T11:38:56.171Z,20.40
2022-12-04T11:41:30.217Z,20.63
2022-12-04T11:44:00.627Z,22.70
2022-12-04T11:46:34.046Z,20.67
2022-12-04T11:49:03.946Z,20.67
2022-12-04T11:51:49.826Z,21.07
2022-12-04T11:54:27.845Z,20.03
2022-12-04T11:57:08.091Z,20.03
2022-12-04T11:59:55.995Z,20.80
2022-12-04T12:02:41.018Z,20.80
2022-12-04T12:05:30.887Z,20.80
2022-12-04T12:08:09.131Z,19.47
2022-12-04T12:10:45.267Z,20.73
2022-12-04T12:13:23.651Z,19.90
2022-12-04T12:16:01.490Z,20.70
2022-12-04T12:18:46.831Z,19.57
2022-12-04T12:21:21.813Z,19.90
2022-12-04T12:24:10.826Z,19.50
2022-12-04T12:26:47.277Z,18.37
2022-12-04T12:29:32.523Z,24.58
2022-12-04T12:32:18.916Z,21.27
2022-12-04T12:34:48.743Z,20.00
2022-12-04T12:37:24.835Z,20.20
2022-12-04T12:40:01.902Z,19.63
2022-12-04T12:42:35.972Z,19.53
2022-12-04T12:45:09.089Z,19.30
2022-12-04T12:47:43.012Z,19.77
2022-12-04T12:50:17.378Z,18.87
2022-12-04T12:52:52.108Z,19.63
2022-12-04T12:55:24.868Z,19.97
2022-12-04T12:58:00.564Z,18.00
2022-12-04T13:00:31.295Z,18.83
2022-12-04T13:03:03.417Z,19.17
2022-12-04T13:05:38.019Z,18.27
2022-12-04T13:08:17.954Z,18.43
2022-12-04T13:10:51.102Z,18.13
2022-12-04T13:13:23.301Z,17.87
2022-12-04T13:15:54.694Z,17.07
2022-12-04T13:18:28.288Z,18.33
2022-12-04T13:21:00.351Z,18.33
2022-12-04T13:23:42.737Z,18.53
2022-12-04T13:26:21.216Z,18.00
2022-12-04T13:28:57.434Z,19.07
2022-12-04T13:31:34.939Z,17.83
2022-12-04T13:34:42.409Z,17.57
2022-12-04T13:37:33.082Z,17.50
2022-12-04T13:40:30.023Z,19.13
2022-12-04T13:43:25.523Z,18.60
2022-12-04T13:45:56.873Z,18.13
2022-12-04T13:48:36.490Z,18.23
2022-12-04T13:51:08.136Z,18.47
2022-12-04T13:53:40.397Z,19.07
2022-12-04T13:56:24.247Z,17.33
2022-12-04T13:59:03.063Z,17.60
2022-12-04T14:01:40.079Z,17.57
2022-12-04T14:04:09.084Z,18.37
2022-12-04T14:06:40.292Z,17.97
2022-12-04T14:09:19.203Z,16.27
2022-12-04T14:11:53.207Z,16.63
2022-12-04T14:14:29.774Z,16.67
2022-12-04T14:16:59.973Z,16.63
2022-12-04T14:19:32.984Z,15.13
2022-12-04T14:22:01.473Z,15.00
2022-12-04T14:24:34.987Z,16.03
2022-12-04T14:27:11.645Z,14.93
2022-12-04T14:29:48.505Z,14.63
2022-12-04T14:32:18.902Z,14.03
2022-12-04T14:34:48.521Z,15.07
2022-12-04T14:37:24.396Z,15.47
2022-12-04T14:39:54.068Z,14.97
2022-12-04T14:42:26.650Z,15.10
2022-12-04T14:44:58.945Z,16.63
2022-12-04T14:47:39.808Z,14.87
2022-12-04T14:50:21.823Z,15.60
2022-12-04T14:52:55.898Z,15.77
2022-12-04T14:55:35.540Z,14.57
2022-12-04T14:58:26.567Z,14.63
2022-12-04T15:01:01.681Z,15.53
2022-12-04T15:03:33.155Z,15.67
2022-12-04T15:06:06.776Z,15.70
2022-12-04T15:08:36.876Z,15.63
2022-12-04T15:11:25.996Z,15.97
2022-12-04T15:13:55.807Z,15.80
2022-12-04T15:16:25.218Z,16.00
2022-12-04T15:18:57.296Z,24.00
2022-12-04T15:21:35.081Z,17.40
2022-12-04T15:24:12.358Z,16.13
2022-12-04T15:26:41.004Z,16.20
2022-12-04T15:29:12.871Z,16.30
2022-12-04T15:31:48.792Z,16.93
2022-12-04T15:34:22.924Z,16.93
2022-12-04T15:37:00.950Z,16.90
2022-12-04T15:39:34.437Z,17.00
2022-12-04T15:42:10.119Z,16.90
2022-12-04T15:44:38.620Z,17.30
2022-12-04T15:47:18.701Z,17.60
2022-12-04T15:49:46.960Z,16.00
2022-12-04T15:52:21.328Z,16.63
2022-12-04T15:54:54.558Z,16.60
2022-12-04T15:57:30.227Z,17.17
2022-12-04T16:00:03.178Z,16.90
2022-12-04T16:02:42.874Z,16.90
2022-12-04T16:05:14.595Z,16.83
2022-12-04T16:07:52.120Z,16.07
2022-12-04T16:10:26.491Z,16.30
2022-12-04T16:12:55.931Z,16.77
2022-12-04T16:15:25.955Z,19.97
2022-12-04T16:17:56.064Z,18.20
2022-12-04T16:20:24.264Z,16.57
2022-12-04T16:22:55.844Z,17.13
2022-12-04T16:25:24.053Z,16.97
2022-12-04T16:27:52.074Z,17.43
2022-12-04T16:30:21.017Z,16.03
2022-12-04T16:32:49.107Z,17.43
2022-12-04T16:35:23.073Z,17.27
2022-12-04T16:37:51.909Z,16.90
2022-12-04T16:40:19.915Z,16.47
2022-12-04T16:42:48.120Z,16.13
2022-12-04T16:45:29.535Z,15.93
2022-12-04T16:47:58.459Z,16.30
2022-12-04T16:50:28.695Z,16.30
2022-12-04T16:53:00.058Z,16.13
2022-12-04T16:55:32.299Z,14.97
2022-12-04T16:58:00.507Z,15.67
2022-12-04T17:00:28.648Z,15.50
2022-12-04T17:02:56.840Z,16.37
2022-12-04T17:05:29.453Z,15.87
2022-12-04T17:07:57.588Z,15.63
2022-12-04T17:10:25.716Z,16.93
2022-12-04T17:12:54.536Z,16.30
2022-12-04T17:15:23.071Z,16.10
2022-12-04T17:17:55.341Z,19.00
2022-12-04T17:20:23.621Z,19.10
2022-12-04T17:22:52.955Z,16.43
2022-12-04T17:25:21.106Z,14.93
2022-12-04T17:27:49.231Z,15.37
2022-12-04T17:30:17.686Z,15.17
2022-12-04T17:32:50.093Z,15.07
2022-12-04T17:35:18.131Z,15.50
2022-12-04T17:37:47.496Z,13.77
2022-12-04T17:40:17.027Z,14.50
2022-12-04T17:42:45.496Z,14.73
2022-12-04T17:45:14.423Z,14.73
2022-12-04T17:47:42.493Z,13.97
2022-12-04T17:50:12.444Z,14.97
2022-12-04T17:52:41.191Z,14.43
2022-12-04T17:55:10.928Z,14.07
2022-12-04T17:57:40.273Z,14.80
2022-12-04T18:00:09.605Z,17.03
2022-12-04T18:02:51.585Z,16.47
2022-12-04T18:05:23.813Z,14.47
2022-12-04T18:07:51.901Z,14.00
2022-12-04T18:10:19.982Z,13.93
2022-12-04T18:12:49.369Z,13.90
2022-12-04T18:15:17.433Z,13.90
2022-12-04T18:17:45.569Z,13.67
2022-12-04T18:20:16.203Z,14.13
2022-12-04T18:22:44.270Z,13.40
2022-12-04T18:25:12.267Z,14.03
2022-12-04T18:27:42.005Z,14.20
2022-12-04T18:30:12.470Z,13.30
2022-12-04T18:32:44.366Z,14.07
2022-12-04T18:35:12.383Z,13.03
2022-12-04T18:37:42.009Z,13.03
2022-12-04T18:40:11.006Z,18.50
2022-12-04T18:42:38.990Z,20.83
2022-12-04T18:45:07.881Z,14.07
2022-12-04T18:47:40.308Z,13.07
2022-12-04T18:50:09.443Z,13.90
2022-12-04T18:52:38.456Z,15.33
2022-12-04T18:55:06.788Z,14.50
2022-12-04T18:57:34.760Z,13.27
2022-12-04T19:00:03.056Z,13.37
2022-12-04T19:02:31.100Z,13.77
2022-12-04T19:05:03.234Z,12.20
2022-12-04T19:07:31.366Z,13.73
2022-12-04T19:10:14.785Z,13.37
2022-12-04T19:12:43.198Z,13.83
2022-12-04T19:15:12.025Z,17.67
2022-12-04T19:17:43.055Z,14.90
2022-12-04T19:20:16.673Z,13.37
2022-12-04T19:22:45.155Z,13.63
2022-12-04T19:25:13.145Z,13.20
2022-12-04T19:27:41.250Z,13.73
2022-12-04T19:30:10.758Z,12.30
2022-12-04T19:32:41.692Z,14.03
2022-12-04T19:35:11.321Z,13.47
2022-12-04T19:37:42.185Z,12.80
2022-12-04T19:40:13.714Z,13.37
2022-12-04T19:42:41.808Z,13.20
2022-12-04T19:45:10.645Z,17.13
2022-12-04T19:47:38.709Z,13.97
2022-12-04T19:50:08.012Z,13.30
2022-12-04T19:52:35.979Z,14.37
2022-12-04T19:55:06.020Z,12.83
2022-12-04T19:57:37.482Z,12.60
2022-12-04T20:00:06.882Z,14.07
2022-12-04T20:02:40.603Z,14.03
2022-12-04T20:05:11.016Z,14.43
2022-12-04T20:07:38.998Z,14.03
2022-12-04T20:10:09.471Z,14.03
2022-12-04T20:12:38.596Z,12.97
2022-12-04T20:15:07.136Z,13.23
2022-12-04T20:17:39.433Z,14.10
2022-12-04T20:20:09.102Z,13.87
2022-12-04T20:22:38.021Z,13.53
2022-12-04T20:25:06.980Z,13.93
2022-12-04T20:27:40.461Z,14.90
2022-12-04T20:30:09.918Z,14.37
2022-12-04T20:32:37.889Z,14.73
2022-12-04T20:35:07.049Z,14.60
2022-12-04T20:37:36.237Z,13.70
2022-12-04T20:40:07.627Z,14.70
2022-12-04T20:42:40.156Z,14.37
2022-12-04T20:45:09.043Z,14.40
2022-12-04T20:47:38.120Z,14.37
2022-12-04T20:50:07.043Z,23.97
2022-12-04T20:52:38.867Z,16.60
2022-12-04T20:55:08.916Z,14.97
2022-12-04T20:57:38.916Z,14.70
2022-12-04T21:00:08.547Z,14.30
2022-12-04T21:02:37.253Z,14.60
2022-12-04T21:05:05.974Z,14.17
2022-12-04T21:07:38.173Z,14.20
2022-12-04T21:10:07.556Z,14.43
2022-12-04T21:12:58.491Z,14.20
2022-12-04T21:15:44.514Z,15.03
2022-12-04T21:18:13.616Z,14.27
2022-12-04T21:20:41.541Z,13.80
2022-12-04T21:23:10.027Z,14.00
2022-12-04T21:25:38.093Z,13.83
2022-12-04T21:28:11.336Z,14.30
2022-12-04T21:30:39.486Z,15.17
2022-12-04T21:33:07.419Z,13.53
2022-12-04T21:35:35.995Z,14.03
2022-12-04T21:38:05.546Z,13.57
2022-12-04T21:40:40.630Z,13.57
2022-12-04T21:43:15.124Z,13.93
2022-12-04T21:45:43.096Z,13.37
2022-12-04T21:48:11.993Z,13.03
2022-12-04T21:50:40.991Z,13.43
2022-12-04T21:53:10.025Z,13.13
2022-12-04T21:55:37.985Z,13.37
2022-12-04T21:58:08.070Z,14.67
2022-12-04T22:00:39.153Z,13.07
2022-12-04T22:03:08.022Z,12.90
2022-12-04T22:05:36.182Z,13.23
2022-12-04T22:08:08.386Z,13.27
2022-12-04T22:10:43.389Z,12.23
2022-12-04T22:13:16.188Z,13.33
2022-12-04T22:15:46.063Z,13.20
2022-12-04T22:18:17.203Z,13.70
2022-12-04T22:20:45.404Z,12.80
2022-12-04T22:23:14.011Z,12.57
2022-12-04T22:25:45.423Z,12.83
2022-12-04T22:28:13.923Z,12.20
2022-12-04T22:30:41.996Z,12.43
2022-12-04T22:33:12.001Z,13.13
2022-12-04T22:35:40.173Z,16.40
2022-12-04T22:38:08.198Z,13.73
2022-12-04T22:40:39.293Z,13.47
2022-12-04T22:43:08.045Z,12.60
2022-12-04T22:45:36.065Z,12.83
2022-12-04T22:48:07.451Z,13.50
2022-12-04T22:50:40.380Z,13.20
2022-12-04T22:53:08.577Z,12.67
2022-12-04T22:55:37.051Z,14.27
2022-12-04T22:58:05.054Z,11.97
2022-12-04T23:00:33.845Z,13.57
2022-12-04T23:03:02.094Z,13.60
2022-12-04T23:05:30.234Z,12.77
2022-12-04T23:07:59.977Z,14.13
2022-12-04T23:10:28.101Z,13.60
2022-12-04T23:12:57.108Z,13.63
2022-12-04T23:15:25.094Z,13.40
2022-12-04T23:17:54.038Z,13.33
2022-12-04T23:20:23.037Z,13.57
2022-12-04T23:22:56.554Z,13.57
2022-12-04T23:25:26.389Z,24.03
2022-12-04T23:27:57.056Z,15.10
2022-12-04T23:30:28.399Z,14.47
2022-12-04T23:32:57.704Z,13.17
2022-12-04T23:35:26.959Z,13.67
2022-12-04T23:37:59.619Z,14.43
2022-12-04T23:40:32.264Z,13.30
2022-12-04T23:43:01.068Z,15.63
2022-12-04T23:45:29.748Z,14.17
2022-12-04T23:48:00.031Z,14.67
2022-12-04T23:50:29.377Z,13.93
2022-12-04T23:53:01.627Z,13.23
2022-12-04T23:55:34.502Z,13.60
2022-12-04T23:58:03.557Z,13.37
